Time;durP1;ratioP1;P1;durP2;ratioP2;P2;SDS_P1;SDS_P2;PMS_P1;PMS_P2;Temp;Humidity;BMP_temperature;BMP_pressure;BME280_temperature;BME280_humidity;BME280_pressure;Samples;Min_cycle;Max_cycle;Signal;HPM_P1;HPM_P2
2022/01/18 00:01:30;;;;;;;6.00;1.90;;;;;;;;;;5005262;28;20078;-78
2022/01/18 00:03:56;;;;;;;10.07;2.10;;;;;;;;;;5008342;28;20060;-79
2022/01/18 00:06:23;;;;;;;6.20;1.63;;;;;;;;;;5028177;28;20031;-78
2022/01/18 00:08:49;;;;;;;8.70;1.88;;;;;;;;;;5003518;28;20027;-78
2022/01/18 00:11:20;;;;;;;8.32;1.95;;;;;;;;;;5001885;28;20022;-79
2022/01/18 00:13:55;;;;;;;5.40;1.60;;;;;;;;;;5006045;28;20069;-79
2022/01/18 00:16:28;;;;;;;8.20;1.80;;;;;;;;;;5014836;28;20021;-79
2022/01/18 00:18:55;;;;;;;7.70;2.38;;;;;;;;;;5015649;28;20024;-78
2022/01/18 00:21:49;;;;;;;8.35;1.75;;;;;;;;;;5008745;28;20073;-78
2022/01/18 00:24:15;;;;;;;10.07;1.75;;;;;;;;;;5027079;28;20057;-80
2022/01/18 00:26:41;;;;;;;6.03;1.95;;;;;;;;;;5027123;28;20088;-79
2022/01/18 00:29:11;;;;;;;5.55;1.73;;;;;;;;;;5047173;28;20026;-78
2022/01/18 00:36:52;;;;;;;6.63;2.28;;;;;;;;;;5014550;28;20093;-79
2022/01/18 00:39:20;;;;;;;10.25;2.58;;;;;;;;;;5013026;28;20022;-79
2022/01/18 00:41:46;;;;;;;7.22;2.28;;;;;;;;;;5013332;28;20026;-79
2022/01/18 00:44:12;;;;;;;6.30;1.90;;;;;;;;;;5029225;28;20094;-79
2022/01/18 00:46:39;;;;;;;10.02;2.20;;;;;;;;;;5014959;28;20026;-79
2022/01/18 00:49:05;;;;;;;7.75;2.20;;;;;;;;;;5012929;28;20018;-79
2022/01/18 00:51:36;;;;;;;5.40;2.33;;;;;;;;;;5011524;28;20539;-79
2022/01/18 00:54:03;;;;;;;7.00;1.95;;;;;;;;;;5024037;28;20022;-79
2022/01/18 00:56:31;;;;;;;7.97;2.05;;;;;;;;;;5047391;28;20022;-79
2022/01/18 00:58:58;;;;;;;7.40;2.15;;;;;;;;;;5041840;28;20126;-78
2022/01/18 01:01:26;;;;;;;5.22;2.00;;;;;;;;;;5011034;28;20033;-78
2022/01/18 01:04:01;;;;;;;6.47;1.95;;;;;;;;;;5024834;28;20030;-79
2022/01/18 01:06:31;;;;;;;5.78;1.67;;;;;;;;;;5031170;28;20050;-79
2022/01/18 01:08:57;;;;;;;4.47;1.88;;;;;;;;;;5034822;28;20026;-79
2022/01/18 01:11:24;;;;;;;4.78;1.60;;;;;;;;;;5019146;28;20022;-79
2022/01/18 01:13:52;;;;;;;8.15;2.42;;;;;;;;;;5015451;28;20038;-80
2022/01/18 01:16:46;;;;;;;4.97;1.65;;;;;;;;;;5045605;28;20117;-79
2022/01/18 01:19:27;;;;;;;8.77;2.33;;;;;;;;;;5012151;28;20095;-79
2022/01/18 01:35:34;;;;;;;8.55;1.83;;;;;;;;;;5009276;28;20034;-80
2022/01/18 01:43:49;;;;;;;7.18;2.55;;;;;;;;;;5007744;28;20041;-78
2022/01/18 01:46:18;;;;;;;7.10;1.77;;;;;;;;;;5018464;28;20507;-79
2022/01/18 01:48:50;;;;;;;8.30;2.17;;;;;;;;;;5034138;28;20054;-79
2022/01/18 01:51:17;;;;;;;6.57;2.03;;;;;;;;;;5005972;28;20022;-79
2022/01/18 01:53:43;;;;;;;5.18;2.10;;;;;;;;;;5008734;28;20041;-78
2022/01/18 01:56:09;;;;;;;5.47;1.85;;;;;;;;;;5018719;28;20030;-78
2022/01/18 01:58:37;;;;;;;7.25;1.90;;;;;;;;;;5026473;28;20022;-79
2022/01/18 02:01:07;;;;;;;12.43;2.17;;;;;;;;;;5000990;28;20407;-79
2022/01/18 02:03:34;;;;;;;9.05;2.50;;;;;;;;;;5002950;28;20047;-79
2022/01/18 02:06:00;;;;;;;5.85;1.92;;;;;;;;;;5008710;28;20525;-79
2022/01/18 02:08:26;;;;;;;6.47;2.10;;;;;;;;;;5035620;28;20033;-79
2022/01/18 02:10:52;;;;;;;7.32;2.45;;;;;;;;;;5017012;28;20549;-79
2022/01/18 02:13:19;;;;;;;8.15;2.60;;;;;;;;;;5026682;28;20040;-80
2022/01/18 02:24:11;;;;;;;6.43;2.70;;;;;;;;;;5006893;28;20138;-79
2022/01/18 02:26:38;;;;;;;8.32;2.55;;;;;;;;;;5007273;28;20022;-79
2022/01/18 02:29:05;;;;;;;7.63;2.75;;;;;;;;;;5007417;28;20054;-79
2022/01/18 02:31:31;;;;;;;8.38;2.75;;;;;;;;;;5006047;28;20022;-79
2022/01/18 02:34:03;;;;;;;7.95;3.03;;;;;;;;;;5005491;28;20508;-78
2022/01/18 02:36:30;;;;;;;5.90;2.63;;;;;;;;;;5005002;28;20026;-79
2022/01/18 02:38:57;;;;;;;5.75;2.80;;;;;;;;;;5008951;28;20030;-80
2022/01/18 02:41:28;;;;;;;6.97;2.72;;;;;;;;;;5020826;28;20022;-79
2022/01/18 02:43:56;;;;;;;8.40;2.80;;;;;;;;;;5027305;28;20041;-79
2022/01/18 02:46:22;;;;;;;5.40;2.35;;;;;;;;;;5004458;28;20025;-79
2022/01/18 02:48:49;;;;;;;6.30;2.53;;;;;;;;;;5004325;28;20042;-79
2022/01/18 02:51:16;;;;;;;7.18;3.13;;;;;;;;;;5010394;28;20031;-78
2022/01/18 02:54:00;;;;;;;6.25;2.42;;;;;;;;;;5021038;28;20034;-79
2022/01/18 02:56:28;;;;;;;8.88;3.00;;;;;;;;;;5005627;28;20023;-77
2022/01/18 02:59:03;;;;;;;7.70;2.50;;;;;;;;;;5004772;28;20041;-78
2022/01/18 03:04:15;;;;;;;6.10;2.13;;;;;;;;;;5006534;28;20042;-78
2022/01/18 03:06:42;;;;;;;11.75;2.83;;;;;;;;;;5005958;28;20026;-80
2022/01/18 03:09:08;;;;;;;6.40;2.15;;;;;;;;;;5003576;28;20081;-80
2022/01/18 03:11:35;;;;;;;8.82;2.42;;;;;;;;;;5005296;28;20376;-80
2022/01/18 03:14:01;;;;;;;8.85;2.60;;;;;;;;;;4998933;28;20026;-79
2022/01/18 03:16:27;;;;;;;6.75;2.40;;;;;;;;;;4985914;28;20041;-80
2022/01/18 03:18:53;;;;;;;5.97;2.40;;;;;;;;;;4987371;28;20027;-79
2022/01/18 03:21:20;;;;;;;6.60;2.38;;;;;;;;;;5005055;28;20027;-80
2022/01/18 03:23:51;;;;;;;7.78;2.50;;;;;;;;;;5021199;28;20077;-79
2022/01/18 03:26:18;;;;;;;8.60;2.75;;;;;;;;;;5016158;28;20031;-79
2022/01/18 03:28:45;;;;;;;8.00;2.50;;;;;;;;;;5007703;28;20023;-79
2022/01/18 03:31:11;;;;;;;5.60;2.35;;;;;;;;;;5016871;28;20030;-79
2022/01/18 03:33:37;;;;;;;6.10;2.70;;;;;;;;;;5032911;28;20049;-79
2022/01/18 03:36:05;;;;;;;9.77;2.40;;;;;;;;;;5016316;28;20027;-79
2022/01/18 03:38:32;;;;;;;5.28;2.70;;;;;;;;;;5004992;28;20030;-79
2022/01/18 03:41:02;;;;;;;9.93;3.10;;;;;;;;;;5005420;28;20086;-79
2022/01/18 03:43:29;;;;;;;5.63;1.92;;;;;;;;;;5004456;28;20033;-78
2022/01/18 03:46:01;;;;;;;6.85;2.40;;;;;;;;;;5006692;28;20077;-78
2022/01/18 03:48:35;;;;;;;8.75;2.38;;;;;;;;;;5013669;28;20022;-79
2022/01/18 03:51:03;;;;;;;8.82;2.40;;;;;;;;;;5015428;28;20034;-79
2022/01/18 03:53:29;;;;;;;7.18;2.42;;;;;;;;;;5025753;28;20025;-80
2022/01/18 03:55:56;;;;;;;5.10;1.92;;;;;;;;;;5040190;28;20054;-80
2022/01/18 03:58:22;;;;;;;5.95;2.40;;;;;;;;;;5039924;28;20056;-80
2022/01/18 04:00:50;;;;;;;7.53;2.38;;;;;;;;;;5026979;28;20027;-80
2022/01/18 04:03:16;;;;;;;6.07;1.92;;;;;;;;;;5012933;28;20109;-79
2022/01/18 04:05:46;;;;;;;7.07;2.35;;;;;;;;;;5042023;28;20026;-78
2022/01/18 04:08:12;;;;;;;5.63;2.40;;;;;;;;;;5043796;28;20033;-78
2022/01/18 04:10:39;;;;;;;7.10;2.50;;;;;;;;;;5015931;28;20034;-79
2022/01/18 04:13:05;;;;;;;9.40;2.10;;;;;;;;;;5005408;28;20038;-79
2022/01/18 04:15:32;;;;;;;8.50;2.13;;;;;;;;;;5020891;28;20026;-80
2022/01/18 04:26:01;;;;;;;7.57;2.17;;;;;;;;;;4987185;28;20058;-80
2022/01/18 04:28:38;;;;;;;5.70;1.95;;;;;;;;;;5000484;28;20033;-79
2022/01/18 04:31:06;;;;;;;7.95;2.22;;;;;;;;;;5020163;28;20035;-79
2022/01/18 04:33:52;;;;;;;7.22;2.30;;;;;;;;;;5016844;28;20046;-80
2022/01/18 04:36:19;;;;;;;6.70;1.80;;;;;;;;;;5006009;28;20026;-80
2022/01/18 04:38:45;;;;;;;7.55;2.50;;;;;;;;;;5006803;28;20030;-80
2022/01/18 04:41:16;;;;;;;7.95;1.77;;;;;;;;;;5006044;28;20034;-79
2022/01/18 04:43:53;;;;;;;6.97;2.00;;;;;;;;;;5008301;28;20019;-80
2022/01/18 04:49:08;;;;;;;4.22;1.77;;;;;;;;;;5004643;28;20060;-80
2022/01/18 04:51:35;;;;;;;5.65;2.17;;;;;;;;;;4998560;28;20025;-80
2022/01/18 04:54:03;;;;;;;8.60;2.40;;;;;;;;;;5031099;28;20034;-80
2022/01/18 04:59:03;;;;;;;8.00;2.58;;;;;;;;;;5021714;28;20026;-79
2022/01/18 05:01:31;;;;;;;6.35;2.10;;;;;;;;;;5004409;28;20082;-80
2022/01/18 05:03:57;;;;;;;5.55;1.80;;;;;;;;;;5002775;28;20034;-80
2022/01/18 05:06:23;;;;;;;5.88;2.03;;;;;;;;;;5002138;28;20396;-78
2022/01/18 05:08:50;;;;;;;6.32;2.40;;;;;;;;;;5007299;28;20026;-79
2022/01/18 05:11:19;;;;;;;11.15;2.20;;;;;;;;;;5006190;28;20053;-79
2022/01/18 05:24:16;;;;;;;7.22;2.30;;;;;;;;;;4974896;28;20030;-79
2022/01/18 05:26:42;;;;;;;10.25;3.05;;;;;;;;;;5003175;28;20030;-79
2022/01/18 05:29:08;;;;;;;6.93;2.28;;;;;;;;;;5004359;28;20038;-79
2022/01/18 05:31:35;;;;;;;7.38;2.65;;;;;;;;;;5024221;28;20126;-80
2022/01/18 05:34:01;;;;;;;7.63;2.63;;;;;;;;;;5004743;28;20026;-79
2022/01/18 05:36:29;;;;;;;7.03;2.03;;;;;;;;;;5020576;28;20026;-79
2022/01/18 05:38:55;;;;;;;9.27;2.35;;;;;;;;;;5011442;28;20018;-78
2022/01/18 05:41:21;;;;;;;12.20;2.65;;;;;;;;;;5005234;28;20563;-80
2022/01/18 05:43:47;;;;;;;9.25;2.58;;;;;;;;;;5006264;28;20488;-78
2022/01/18 05:46:13;;;;;;;7.93;2.22;;;;;;;;;;5019587;28;20111;-81
2022/01/18 05:48:39;;;;;;;6.50;2.03;;;;;;;;;;5038174;28;20026;-80
2022/01/18 05:51:06;;;;;;;9.35;2.60;;;;;;;;;;5024189;28;20038;-80
2022/01/18 05:53:35;;;;;;;5.57;2.25;;;;;;;;;;5005706;28;20026;-79
2022/01/18 05:56:01;;;;;;;7.40;2.80;;;;;;;;;;5007329;28;20046;-80
2022/01/18 05:58:27;;;;;;;11.68;3.53;;;;;;;;;;5006146;28;20105;-79
2022/01/18 06:00:55;;;;;;;12.90;4.75;;;;;;;;;;5006321;28;20026;-79
2022/01/18 06:03:29;;;;;;;9.82;4.40;;;;;;;;;;5006759;28;20026;-79
2022/01/18 06:08:41;;;;;;;9.32;2.97;;;;;;;;;;5024927;28;20143;-79
2022/01/18 06:11:08;;;;;;;8.90;2.50;;;;;;;;;;5025763;28;20034;-79
2022/01/18 06:13:35;;;;;;;8.90;2.63;;;;;;;;;;5001068;28;20072;-78
2022/01/18 06:16:01;;;;;;;9.82;2.95;;;;;;;;;;5004593;28;20033;-79
2022/01/18 06:18:27;;;;;;;8.50;2.22;;;;;;;;;;5005293;28;20027;-78
2022/01/18 06:20:54;;;;;;;8.18;2.42;;;;;;;;;;5004720;28;20022;-78
2022/01/18 06:23:21;;;;;;;8.02;2.35;;;;;;;;;;5001835;28;20300;-79
2022/01/18 06:25:47;;;;;;;6.43;2.42;;;;;;;;;;5001057;28;20440;-79
2022/01/18 06:28:13;;;;;;;7.60;2.20;;;;;;;;;;5002029;28;20030;-79
2022/01/18 06:30:42;;;;;;;6.50;2.47;;;;;;;;;;5003541;28;20057;-79
2022/01/18 06:33:09;;;;;;;7.93;2.30;;;;;;;;;;5006576;28;20061;-80
2022/01/18 06:35:38;;;;;;;7.68;2.50;;;;;;;;;;5010618;28;20094;-79
2022/01/18 06:38:04;;;;;;;7.07;2.05;;;;;;;;;;5005482;28;20109;-80
2022/01/18 06:40:30;;;;;;;5.45;2.08;;;;;;;;;;5002857;28;20518;-80
2022/01/18 06:42:57;;;;;;;6.10;2.90;;;;;;;;;;5013528;28;20026;-81
2022/01/18 06:45:24;;;;;;;7.65;2.42;;;;;;;;;;5023640;28;20447;-80
2022/01/18 06:47:50;;;;;;;8.68;2.80;;;;;;;;;;5018670;28;20507;-79
2022/01/18 06:50:16;;;;;;;12.88;2.80;;;;;;;;;;5002755;28;20031;-80
2022/01/18 06:52:42;;;;;;;7.05;2.90;;;;;;;;;;5002610;28;20022;-79
2022/01/18 06:55:09;;;;;;;7.95;2.33;;;;;;;;;;5008623;28;20031;-81
2022/01/18 06:57:35;;;;;;;5.88;2.60;;;;;;;;;;5001975;28;20030;-79
2022/01/18 07:00:03;;;;;;;9.23;2.72;;;;;;;;;;5002947;28;20045;-78
2022/01/18 07:02:29;;;;;;;8.07;2.40;;;;;;;;;;5002653;28;20026;-79
2022/01/18 07:04:56;;;;;;;8.43;2.97;;;;;;;;;;5003714;28;20544;-80
2022/01/18 07:07:23;;;;;;;11.80;3.10;;;;;;;;;;5005668;28;20430;-80
2022/01/18 07:09:50;;;;;;;10.40;4.85;;;;;;;;;;5005021;28;20022;-80
2022/01/18 07:12:17;;;;;;;9.68;4.72;;;;;;;;;;5003690;28;20030;-80
2022/01/18 07:14:44;;;;;;;10.50;4.38;;;;;;;;;;4987696;28;20050;-80
2022/01/18 07:17:10;;;;;;;9.93;3.72;;;;;;;;;;4999976;28;20018;-80
2022/01/18 07:19:37;;;;;;;8.30;3.47;;;;;;;;;;5004483;28;20034;-79
2022/01/18 07:22:04;;;;;;;9.75;4.18;;;;;;;;;;4986076;28;20053;-79
2022/01/18 07:24:44;;;;;;;6.50;3.15;;;;;;;;;;4993711;28;20046;-79
2022/01/18 07:27:12;;;;;;;10.00;3.50;;;;;;;;;;5005206;28;20030;-79
2022/01/18 07:29:44;;;;;;;10.25;3.50;;;;;;;;;;5001972;28;20026;-80
2022/01/18 07:32:10;;;;;;;8.27;3.60;;;;;;;;;;4995466;28;20042;-79
2022/01/18 07:34:41;;;;;;;9.07;3.63;;;;;;;;;;5023029;28;20026;-80
2022/01/18 07:37:09;;;;;;;6.88;3.58;;;;;;;;;;5038300;28;20026;-80
2022/01/18 07:39:35;;;;;;;8.75;4.20;;;;;;;;;;5002498;28;20022;-79
2022/01/18 07:42:01;;;;;;;7.10;3.30;;;;;;;;;;5002096;28;20023;-79
2022/01/18 07:44:29;;;;;;;7.28;3.45;;;;;;;;;;5002603;28;20031;-78
2022/01/18 07:46:55;;;;;;;7.95;3.70;;;;;;;;;;5002600;28;20018;-80
2022/01/18 07:49:21;;;;;;;8.13;4.18;;;;;;;;;;4999393;28;20031;-78
2022/01/18 07:51:47;;;;;;;10.70;4.72;;;;;;;;;;5000264;28;20057;-80
2022/01/18 07:54:13;;;;;;;8.75;4.43;;;;;;;;;;5000009;28;20380;-80
2022/01/18 07:56:44;;;;;;;10.63;4.18;;;;;;;;;;5001170;28;20034;-79
2022/01/18 07:59:11;;;;;;;9.05;4.72;;;;;;;;;;4999088;28;20042;-79
2022/01/18 08:01:39;;;;;;;8.35;3.70;;;;;;;;;;5000062;28;20444;-80
2022/01/18 08:04:05;;;;;;;11.13;4.15;;;;;;;;;;5003817;28;20054;-81
2022/01/18 08:06:31;;;;;;;10.52;4.95;;;;;;;;;;5001569;28;20101;-79
2022/01/18 08:08:57;;;;;;;10.85;4.30;;;;;;;;;;5014077;28;20434;-79
2022/01/18 08:11:23;;;;;;;8.65;4.43;;;;;;;;;;4999585;28;20041;-80
2022/01/18 08:13:50;;;;;;;7.55;4.07;;;;;;;;;;5002855;28;20031;-80
2022/01/18 08:16:46;;;;;;;8.43;4.43;;;;;;;;;;4997957;28;20023;-79
2022/01/18 08:19:13;;;;;;;11.93;4.40;;;;;;;;;;5000855;28;20173;-80
2022/01/18 08:21:41;;;;;;;7.78;3.88;;;;;;;;;;5001321;28;20507;-80
2022/01/18 08:24:07;;;;;;;6.38;3.83;;;;;;;;;;5001269;28;20118;-80
2022/01/18 08:26:33;;;;;;;8.45;4.03;;;;;;;;;;4999966;28;20026;-79
2022/01/18 08:29:00;;;;;;;9.18;4.10;;;;;;;;;;4999946;28;20491;-81
2022/01/18 08:31:26;;;;;;;10.52;4.93;;;;;;;;;;5001060;28;20050;-81
2022/01/18 08:33:52;;;;;;;8.18;4.25;;;;;;;;;;5000634;28;20033;-81
2022/01/18 08:36:19;;;;;;;10.63;4.78;;;;;;;;;;4999993;28;20435;-80
2022/01/18 08:38:46;;;;;;;9.48;4.15;;;;;;;;;;5000773;28;20026;-80
2022/01/18 08:41:12;;;;;;;8.77;4.90;;;;;;;;;;5001875;28;20029;-80
2022/01/18 08:43:38;;;;;;;11.48;4.20;;;;;;;;;;5006323;28;20025;-80
2022/01/18 08:46:13;;;;;;;8.93;4.60;;;;;;;;;;5002354;28;20022;-80
2022/01/18 08:48:52;;;;;;;8.50;4.45;;;;;;;;;;5002030;28;20050;-80
2022/01/18 08:51:21;;;;;;;11.00;4.95;;;;;;;;;;5007179;28;20026;-80
2022/01/18 08:53:51;;;;;;;10.75;4.50;;;;;;;;;;5016891;28;20026;-80
2022/01/18 08:56:23;;;;;;;11.45;3.90;;;;;;;;;;5004680;28;20049;-80
2022/01/18 08:58:53;;;;;;;9.90;3.85;;;;;;;;;;5014841;28;20022;-80
2022/01/18 09:01:26;;;;;;;9.55;4.10;;;;;;;;;;5004051;28;20027;-78
2022/01/18 09:04:06;;;;;;;9.77;4.22;;;;;;;;;;5013598;28;20015;-82
2022/01/18 09:06:37;;;;;;;9.82;4.30;;;;;;;;;;5018189;28;20046;-80
2022/01/18 09:09:09;;;;;;;10.65;4.40;;;;;;;;;;5009941;28;20022;-80
2022/01/18 09:11:36;;;;;;;12.40;4.22;;;;;;;;;;5003889;28;20030;-79
2022/01/18 09:14:15;;;;;;;8.48;4.20;;;;;;;;;;5006288;28;20022;-80
2022/01/18 09:16:42;;;;;;;12.07;5.05;;;;;;;;;;5020613;28;20033;-80
2022/01/18 09:19:27;;;;;;;9.20;3.63;;;;;;;;;;5004263;28;20037;-79
2022/01/18 09:22:03;;;;;;;9.30;3.80;;;;;;;;;;5001967;28;20119;-82
2022/01/18 09:24:32;;;;;;;11.93;4.13;;;;;;;;;;5009842;28;20023;-80
2022/01/18 09:27:10;;;;;;;9.35;4.60;;;;;;;;;;5006066;28;20025;-80
2022/01/18 09:29:45;;;;;;;9.32;5.00;;;;;;;;;;5005186;28;20026;-81
2022/01/18 09:32:11;;;;;;;12.55;4.63;;;;;;;;;;5002316;28;20081;-79
2022/01/18 09:34:37;;;;;;;9.85;4.35;;;;;;;;;;5002906;28;20134;-79
2022/01/18 09:37:03;;;;;;;9.68;4.30;;;;;;;;;;5038222;28;20026;-79
2022/01/18 09:39:30;;;;;;;12.15;5.03;;;;;;;;;;5038650;28;20443;-80
2022/01/18 09:41:58;;;;;;;12.95;4.75;;;;;;;;;;5037699;28;20033;-79
2022/01/18 09:44:25;;;;;;;11.25;4.43;;;;;;;;;;5029617;28;20029;-78
2022/01/18 09:46:52;;;;;;;11.55;4.50;;;;;;;;;;5001719;28;20034;-79
2022/01/18 09:49:20;;;;;;;12.48;4.95;;;;;;;;;;5001722;28;20033;-79
2022/01/18 09:51:46;;;;;;;9.13;3.78;;;;;;;;;;5002892;28;20023;-81
2022/01/18 09:54:13;;;;;;;10.30;4.10;;;;;;;;;;5004138;28;20036;-80
2022/01/18 09:56:39;;;;;;;10.80;3.75;;;;;;;;;;4987862;28;20030;-80
2022/01/18 09:59:06;;;;;;;9.02;3.47;;;;;;;;;;5003404;28;20033;-79
2022/01/18 10:01:33;;;;;;;10.32;3.65;;;;;;;;;;5004553;28;20029;-80
2022/01/18 10:04:17;;;;;;;8.20;3.25;;;;;;;;;;5003433;28;20082;-81
2022/01/18 10:06:44;;;;;;;8.98;3.10;;;;;;;;;;5000084;28;20035;-81
2022/01/18 10:09:11;;;;;;;8.45;3.20;;;;;;;;;;4983705;28;20033;-79
2022/01/18 10:11:58;;;;;;;10.77;3.63;;;;;;;;;;5000478;28;20611;-79
2022/01/18 10:14:24;;;;;;;10.40;3.28;;;;;;;;;;4981978;28;20030;-80
2022/01/18 10:16:50;;;;;;;13.90;3.83;;;;;;;;;;5002129;28;20078;-79
2022/01/18 10:19:30;;;;;;;10.43;3.70;;;;;;;;;;5000121;28;20540;-79
2022/01/18 10:22:07;;;;;;;9.80;3.30;;;;;;;;;;5005549;28;20536;-79
2022/01/18 10:24:33;;;;;;;8.88;2.88;;;;;;;;;;5002643;28;20026;-79
2022/01/18 10:26:59;;;;;;;13.82;3.80;;;;;;;;;;5003220;28;20030;-79
2022/01/18 10:29:26;;;;;;;9.88;3.40;;;;;;;;;;5002066;28;20032;-79
2022/01/18 10:34:43;;;;;;;11.25;4.05;;;;;;;;;;5024406;28;20113;-79
2022/01/18 10:37:20;;;;;;;11.10;4.15;;;;;;;;;;5035854;28;20090;-80
2022/01/18 10:39:50;;;;;;;9.88;3.30;;;;;;;;;;5005306;28;20082;-81
2022/01/18 10:42:26;;;;;;;8.82;3.22;;;;;;;;;;5004449;28;20044;-78
2022/01/18 10:45:13;;;;;;;7.05;3.17;;;;;;;;;;5003442;28;20030;-78
2022/01/18 10:47:48;;;;;;;10.80;3.53;;;;;;;;;;5003164;28;20683;-79
2022/01/18 10:50:16;;;;;;;9.25;2.85;;;;;;;;;;5001892;28;20514;-79
2022/01/18 10:52:44;;;;;;;10.95;3.42;;;;;;;;;;5003551;28;20057;-80
2022/01/18 10:55:23;;;;;;;8.45;2.92;;;;;;;;;;4993604;28;20070;-79
2022/01/18 10:57:50;;;;;;;8.82;3.35;;;;;;;;;;5004708;28;20034;-80
2022/01/18 11:00:18;;;;;;;9.80;3.20;;;;;;;;;;5016822;28;20049;-80
2022/01/18 11:02:45;;;;;;;8.05;2.92;;;;;;;;;;5001341;28;20110;-79
2022/01/18 11:05:13;;;;;;;9.05;3.50;;;;;;;;;;4999547;28;20038;-79
2022/01/18 11:07:40;;;;;;;11.85;3.72;;;;;;;;;;5002397;28;20049;-79
2022/01/18 11:10:08;;;;;;;14.73;3.50;;;;;;;;;;5003696;28;20022;-78
2022/01/18 11:12:52;;;;;;;8.73;3.60;;;;;;;;;;5007777;28;20050;-81
2022/01/18 11:15:21;;;;;;;15.82;3.53;;;;;;;;;;5011694;28;20026;-80
2022/01/18 11:17:56;;;;;;;11.55;4.18;;;;;;;;;;5024973;28;20026;-82
2022/01/18 11:20:22;;;;;;;7.15;2.78;;;;;;;;;;4991883;28;20021;-81
2022/01/18 11:22:49;;;;;;;7.50;3.10;;;;;;;;;;5002890;28;20022;-80
2022/01/18 11:25:16;;;;;;;8.90;2.85;;;;;;;;;;5018170;28;20026;-80
2022/01/18 11:27:47;;;;;;;12.02;3.35;;;;;;;;;;5007741;28;20023;-80
2022/01/18 11:30:14;;;;;;;9.35;2.95;;;;;;;;;;5000869;28;20030;-80
2022/01/18 11:32:40;;;;;;;10.05;3.22;;;;;;;;;;5019129;28;20132;-82
2022/01/18 11:35:09;;;;;;;10.20;2.75;;;;;;;;;;4986137;28;20049;-81
2022/01/18 11:37:39;;;;;;;8.18;3.08;;;;;;;;;;5019751;28;20029;-80
2022/01/18 11:40:06;;;;;;;9.50;3.65;;;;;;;;;;5029050;28;20046;-80
2022/01/18 11:42:39;;;;;;;8.90;3.17;;;;;;;;;;5004089;28;20080;-79
2022/01/18 11:45:24;;;;;;;9.35;2.70;;;;;;;;;;5003472;28;20037;-79
2022/01/18 11:48:05;;;;;;;10.80;4.50;;;;;;;;;;5002017;28;20038;-79
2022/01/18 11:50:33;;;;;;;8.32;3.20;;;;;;;;;;5000897;28;20089;-82
2022/01/18 11:53:26;;;;;;;11.35;3.97;;;;;;;;;;5017286;28;20022;-79
2022/01/18 11:55:57;;;;;;;9.60;3.00;;;;;;;;;;4999007;28;20041;-80
2022/01/18 11:58:24;;;;;;;10.48;3.08;;;;;;;;;;4999689;28;20026;-81
2022/01/18 12:00:58;;;;;;;9.15;3.00;;;;;;;;;;5000648;28;20022;-80
2022/01/18 12:03:27;;;;;;;9.65;2.97;;;;;;;;;;4999235;28;20439;-80
2022/01/18 12:05:58;;;;;;;10.95;3.30;;;;;;;;;;5020460;28;20027;-79
2022/01/18 12:08:45;;;;;;;10.95;3.55;;;;;;;;;;5018441;28;20107;-80
2022/01/18 12:11:11;;;;;;;8.07;2.80;;;;;;;;;;5003268;28;20033;-80
2022/01/18 12:13:39;;;;;;;7.60;3.20;;;;;;;;;;4990114;28;20043;-80
2022/01/18 12:16:10;;;;;;;10.57;3.50;;;;;;;;;;5001729;28;20050;-81
2022/01/18 12:18:49;;;;;;;6.75;3.22;;;;;;;;;;5002683;28;20042;-81
2022/01/18 12:21:24;;;;;;;9.10;3.03;;;;;;;;;;5019206;28;20068;-80
2022/01/18 12:23:51;;;;;;;12.52;2.90;;;;;;;;;;5001364;28;20431;-81
2022/01/18 12:26:38;;;;;;;10.75;2.90;;;;;;;;;;5022915;28;20026;-80
2022/01/18 12:34:29;;;;;;;8.25;2.97;;;;;;;;;;5013716;28;20030;-80
2022/01/18 12:36:57;;;;;;;17.38;4.03;;;;;;;;;;5013054;28;20030;-79
2022/01/18 12:39:26;;;;;;;13.93;3.22;;;;;;;;;;5005431;28;20021;-79
2022/01/18 12:41:57;;;;;;;11.98;3.20;;;;;;;;;;5026217;28;20084;-80
2022/01/18 12:44:24;;;;;;;13.07;3.10;;;;;;;;;;5019457;28;20387;-79
2022/01/18 12:47:00;;;;;;;7.50;2.33;;;;;;;;;;5026090;28;20030;-80
2022/01/18 12:49:30;;;;;;;8.32;2.50;;;;;;;;;;5000165;28;20031;-81
2022/01/18 12:51:56;;;;;;;11.75;3.45;;;;;;;;;;5007311;28;20045;-82
2022/01/18 12:54:39;;;;;;;8.00;2.50;;;;;;;;;;5011737;28;20026;-80
2022/01/18 12:57:15;;;;;;;6.72;2.90;;;;;;;;;;5013302;28;20081;-80
2022/01/18 13:00:00;;;;;;;9.98;3.03;;;;;;;;;;5008830;28;20141;-81
2022/01/18 13:02:26;;;;;;;9.75;2.78;;;;;;;;;;5008827;28;20096;-80
2022/01/18 13:05:03;;;;;;;10.60;2.70;;;;;;;;;;4996343;28;20030;-80
2022/01/18 13:07:29;;;;;;;8.30;2.30;;;;;;;;;;5000997;28;20030;-79
2022/01/18 13:10:08;;;;;;;9.00;2.60;;;;;;;;;;5000833;28;20045;-80
2022/01/18 13:12:43;;;;;;;7.47;2.95;;;;;;;;;;5002115;28;20026;-80
2022/01/18 13:15:11;;;;;;;7.32;3.42;;;;;;;;;;5028022;28;20037;-82
2022/01/18 13:23:30;;;;;;;7.63;2.80;;;;;;;;;;4977656;28;20037;-81
2022/01/18 13:26:01;;;;;;;8.23;2.50;;;;;;;;;;5019568;28;20117;-81
2022/01/18 13:28:37;;;;;;;8.98;4.07;;;;;;;;;;5021036;28;20033;-80
2022/01/18 13:31:16;;;;;;;8.27;3.05;;;;;;;;;;5008464;28;20027;-81
2022/01/18 13:34:01;;;;;;;8.05;2.70;;;;;;;;;;5016273;28;20172;-79
2022/01/18 13:36:32;;;;;;;9.20;3.17;;;;;;;;;;5016787;28;20061;-79
2022/01/18 13:38:58;;;;;;;8.70;3.03;;;;;;;;;;5002386;28;20022;-79
2022/01/18 13:41:24;;;;;;;8.43;3.50;;;;;;;;;;5003495;28;20019;-79
2022/01/18 13:43:52;;;;;;;9.00;2.67;;;;;;;;;;5003666;28;20018;-80
2022/01/18 13:46:25;;;;;;;11.25;3.58;;;;;;;;;;5006326;28;20018;-79
2022/01/18 13:49:04;;;;;;;5.85;2.50;;;;;;;;;;5018680;28;20030;-79
2022/01/18 13:51:30;;;;;;;9.35;2.60;;;;;;;;;;5010393;28;21125;-80
2022/01/18 13:54:03;;;;;;;9.10;3.00;;;;;;;;;;5002073;28;20026;-80
2022/01/18 13:56:29;;;;;;;13.27;3.47;;;;;;;;;;5003696;28;20404;-81
2022/01/18 13:59:03;;;;;;;9.23;3.33;;;;;;;;;;5003141;28;20054;-81
2022/01/18 14:01:34;;;;;;;7.40;3.10;;;;;;;;;;5002500;28;20092;-79
2022/01/18 14:04:17;;;;;;;9.95;3.03;;;;;;;;;;5002889;28;20036;-80
2022/01/18 14:06:44;;;;;;;8.52;2.85;;;;;;;;;;5012583;28;20118;-79
2022/01/18 14:09:12;;;;;;;9.30;2.65;;;;;;;;;;5016721;28;20496;-79
2022/01/18 14:11:39;;;;;;;9.30;3.30;;;;;;;;;;5008702;28;20033;-79
2022/01/18 14:14:25;;;;;;;7.35;3.08;;;;;;;;;;5004977;28;20065;-79
2022/01/18 14:16:51;;;;;;;8.55;2.88;;;;;;;;;;5005038;28;20029;-78
2022/01/18 14:19:28;;;;;;;12.02;2.83;;;;;;;;;;4999208;28;20052;-78
2022/01/18 14:21:56;;;;;;;9.43;3.00;;;;;;;;;;5001954;28;20018;-79
2022/01/18 14:24:24;;;;;;;9.10;3.00;;;;;;;;;;5004493;28;20034;-80
2022/01/18 14:26:53;;;;;;;11.25;3.40;;;;;;;;;;5010525;28;20026;-78
2022/01/18 14:29:21;;;;;;;7.32;3.40;;;;;;;;;;5000173;28;20032;-79
2022/01/18 14:32:05;;;;;;;9.82;3.30;;;;;;;;;;5001963;28;20137;-79
2022/01/18 14:34:32;;;;;;;9.25;3.40;;;;;;;;;;4999962;28;20058;-78
2022/01/18 14:36:59;;;;;;;9.45;3.25;;;;;;;;;;5019476;28;20041;-80
2022/01/18 14:39:26;;;;;;;9.77;3.22;;;;;;;;;;5029820;28;20030;-80
2022/01/18 14:41:58;;;;;;;8.43;3.55;;;;;;;;;;5000600;28;20097;-80
2022/01/18 14:44:36;;;;;;;9.70;4.07;;;;;;;;;;5001913;28;20026;-79
2022/01/18 14:49:48;;;;;;;11.27;3.00;;;;;;;;;;5002720;28;20118;-83
2022/01/18 14:52:14;;;;;;;10.13;3.83;;;;;;;;;;5001281;28;20073;-81
2022/01/18 14:54:41;;;;;;;10.18;3.53;;;;;;;;;;5002610;28;20098;-80
2022/01/18 14:57:09;;;;;;;8.77;3.50;;;;;;;;;;5010773;28;20057;-81
2022/01/18 14:59:35;;;;;;;10.35;4.25;;;;;;;;;;5030287;28;20030;-81
2022/01/18 15:02:01;;;;;;;9.60;3.53;;;;;;;;;;5000983;28;20143;-81
2022/01/18 15:04:27;;;;;;;12.20;3.70;;;;;;;;;;5002289;28;20477;-81
2022/01/18 15:06:54;;;;;;;9.70;4.00;;;;;;;;;;5017457;28;20064;-81
2022/01/18 15:09:20;;;;;;;11.75;4.93;;;;;;;;;;5001982;28;20392;-80
2022/01/18 15:11:46;;;;;;;8.60;3.40;;;;;;;;;;5001422;28;20562;-81
2022/01/18 15:14:13;;;;;;;12.02;3.40;;;;;;;;;;5001626;28;20480;-81
2022/01/18 15:16:39;;;;;;;7.05;3.53;;;;;;;;;;5002665;28;20026;-80
2022/01/18 15:19:05;;;;;;;10.40;4.05;;;;;;;;;;5016716;28;20104;-80
2022/01/18 15:21:31;;;;;;;10.40;4.55;;;;;;;;;;5016458;28;20023;-79
2022/01/18 15:23:58;;;;;;;14.63;5.05;;;;;;;;;;5017048;28;20026;-80
2022/01/18 15:26:24;;;;;;;8.55;3.92;;;;;;;;;;5017229;28;20567;-80
2022/01/18 15:28:51;;;;;;;8.50;3.65;;;;;;;;;;5002213;28;20038;-80
2022/01/18 15:31:17;;;;;;;9.25;3.90;;;;;;;;;;5001719;28;20033;-79
2022/01/18 15:33:44;;;;;;;9.43;3.63;;;;;;;;;;5001070;28;20080;-80
2022/01/18 15:36:11;;;;;;;10.25;4.20;;;;;;;;;;5000998;28;20027;-79
2022/01/18 15:38:38;;;;;;;8.98;4.32;;;;;;;;;;5000154;28;20054;-80
2022/01/18 15:41:04;;;;;;;8.95;4.00;;;;;;;;;;5000683;28;20045;-80
2022/01/18 15:43:31;;;;;;;11.38;3.58;;;;;;;;;;5000786;28;20062;-80
2022/01/18 15:45:57;;;;;;;10.32;4.03;;;;;;;;;;5002252;28;20030;-79
2022/01/18 15:48:23;;;;;;;8.13;3.50;;;;;;;;;;4994980;28;20109;-80
2022/01/18 15:50:49;;;;;;;11.18;3.90;;;;;;;;;;4992052;28;20041;-80
2022/01/18 15:53:16;;;;;;;9.48;3.80;;;;;;;;;;5000812;28;20022;-80
2022/01/18 15:55:46;;;;;;;8.48;3.60;;;;;;;;;;5008041;28;20128;-80
2022/01/18 15:58:12;;;;;;;8.02;3.33;;;;;;;;;;5010209;28;20026;-86
2022/01/18 16:00:42;;;;;;;9.23;3.53;;;;;;;;;;5006888;28;20018;-84
2022/01/18 16:06:15;;;;;;;7.63;3.13;;;;;;;;;;5006153;28;20041;-83
2022/01/18 16:08:45;;;;;;;9.23;3.20;;;;;;;;;;5007768;28;20030;-84
2022/01/18 16:11:34;;;;;;;12.38;3.60;;;;;;;;;;5006911;28;20041;-84
2022/01/18 16:17:03;;;;;;;7.70;4.20;;;;;;;;;;5012531;28;20048;-84
2022/01/18 16:19:30;;;;;;;10.63;3.65;;;;;;;;;;5007141;28;20003;-84